sensor_id;sensor_type;location;lat;lon;timestamp;temperature;humidity
26589;DHT22;14235;48.532;8.722;2023-07-20T00:02:14;19.50;91.60
26589;DHT22;14235;48.532;8.722;2023-07-20T00:04:40;19.60;91.80
26589;DHT22;14235;48.532;8.722;2023-07-20T00:07:06;19.60;91.50
26589;DHT22;14235;48.532;8.722;2023-07-20T00:09:31;19.30;91.90
26589;DHT22;14235;48.532;8.722;2023-07-20T00:11:57;19.40;92.20
26589;DHT22;14235;48.532;8.722;2023-07-20T00:14:25;19.30;92.30
26589;DHT22;14235;48.532;8.722;2023-07-20T00:16:51;19.50;92.60
26589;DHT22;14235;48.532;8.722;2023-07-20T00:19:25;19.30;91.90
26589;DHT22;14235;48.532;8.722;2023-07-20T00:21:52;19.20;91.80
26589;DHT22;14235;48.532;8.722;2023-07-20T00:24:17;19.30;92.00
26589;DHT22;14235;48.532;8.722;2023-07-20T00:26:43;19.40;92.00
26589;DHT22;14235;48.532;8.722;2023-07-20T00:29:09;19.40;91.80
26589;DHT22;14235;48.532;8.722;2023-07-20T00:31:35;19.40;91.80
26589;DHT22;14235;48.532;8.722;2023-07-20T00:34:02;19.30;92.30
26589;DHT22;14235;48.532;8.722;2023-07-20T00:36:28;19.30;92.20
26589;DHT22;14235;48.532;8.722;2023-07-20T00:38:54;19.40;92.00
26589;DHT22;14235;48.532;8.722;2023-07-20T00:41:20;19.30;91.70
26589;DHT22;14235;48.532;8.722;2023-07-20T00:43:45;19.30;92.20
26589;DHT22;14235;48.532;8.722;2023-07-20T00:46:11;19.30;92.50
26589;DHT22;14235;48.532;8.722;2023-07-20T00:48:37;19.30;92.40
26589;DHT22;14235;48.532;8.722;2023-07-20T00:51:03;19.20;92.20
26589;DHT22;14235;48.532;8.722;2023-07-20T00:53:29;19.30;92.60
26589;DHT22;14235;48.532;8.722;2023-07-20T00:55:55;19.10;92.40
26589;DHT22;14235;48.532;8.722;2023-07-20T00:58:21;19.20;92.60
26589;DHT22;14235;48.532;8.722;2023-07-20T01:00:46;19.20;92.30
26589;DHT22;14235;48.532;8.722;2023-07-20T01:03:12;19.00;92.40
26589;DHT22;14235;48.532;8.722;2023-07-20T01:11:54;19.00;92.00
26589;DHT22;14235;48.532;8.722;2023-07-20T01:14:23;19.10;92.00
26589;DHT22;14235;48.532;8.722;2023-07-20T01:16:49;19.10;92.50
26589;DHT22;14235;48.532;8.722;2023-07-20T01:19:17;19.10;93.10
26589;DHT22;14235;48.532;8.722;2023-07-20T01:27:15;19.00;93.90
26589;DHT22;14235;48.532;8.722;2023-07-20T01:32:31;18.70;94.50
26589;DHT22;14235;48.532;8.722;2023-07-20T01:34:57;18.70;95.00
26589;DHT22;14235;48.532;8.722;2023-07-20T01:37:24;18.60;95.60
26589;DHT22;14235;48.532;8.722;2023-07-20T01:39:54;18.70;95.50
26589;DHT22;14235;48.532;8.722;2023-07-20T01:42:23;18.60;95.20
26589;DHT22;14235;48.532;8.722;2023-07-20T01:44:53;18.50;95.50
26589;DHT22;14235;48.532;8.722;2023-07-20T01:47:19;18.50;95.80
26589;DHT22;14235;48.532;8.722;2023-07-20T01:49:45;18.40;95.60
26589;DHT22;14235;48.532;8.722;2023-07-20T01:52:10;18.40;95.60
26589;DHT22;14235;48.532;8.722;2023-07-20T01:54:36;18.50;95.50
26589;DHT22;14235;48.532;8.722;2023-07-20T01:57:02;18.10;95.80
26589;DHT22;14235;48.532;8.722;2023-07-20T01:59:29;18.10;96.30
26589;DHT22;14235;48.532;8.722;2023-07-20T02:01:55;18.20;95.80
26589;DHT22;14235;48.532;8.722;2023-07-20T02:04:20;18.20;96.10
26589;DHT22;14235;48.532;8.722;2023-07-20T02:06:46;18.10;95.60
26589;DHT22;14235;48.532;8.722;2023-07-20T02:09:11;18.30;95.50
26589;DHT22;14235;48.532;8.722;2023-07-20T02:11:37;18.10;95.70
26589;DHT22;14235;48.532;8.722;2023-07-20T02:14:02;18.20;95.50
26589;DHT22;14235;48.532;8.722;2023-07-20T02:16:28;18.10;95.70
26589;DHT22;14235;48.532;8.722;2023-07-20T02:18:53;18.20;95.30
26589;DHT22;14235;48.532;8.722;2023-07-20T02:21:22;17.90;95.30
26589;DHT22;14235;48.532;8.722;2023-07-20T02:23:48;17.90;95.60
26589;DHT22;14235;48.532;8.722;2023-07-20T02:26:13;17.80;95.60
26589;DHT22;14235;48.532;8.722;2023-07-20T02:28:39;17.90;95.70
26589;DHT22;14235;48.532;8.722;2023-07-20T02:31:05;17.90;95.90
26589;DHT22;14235;48.532;8.722;2023-07-20T02:33:30;17.90;95.60
26589;DHT22;14235;48.532;8.722;2023-07-20T02:35:56;17.50;96.10
26589;DHT22;14235;48.532;8.722;2023-07-20T02:38:21;17.50;97.10
26589;DHT22;14235;48.532;8.722;2023-07-20T02:40:47;17.50;97.00
26589;DHT22;14235;48.532;8.722;2023-07-20T02:43:12;17.60;96.80
26589;DHT22;14235;48.532;8.722;2023-07-20T02:45:41;17.40;96.90
26589;DHT22;14235;48.532;8.722;2023-07-20T02:48:08;17.40;97.00
26589;DHT22;14235;48.532;8.722;2023-07-20T02:50:33;17.40;98.70
26589;DHT22;14235;48.532;8.722;2023-07-20T02:53:00;17.40;99.90
26589;DHT22;14235;48.532;8.722;2023-07-20T02:55:26;17.20;99.10
26589;DHT22;14235;48.532;8.722;2023-07-20T02:57:51;17.20;99.40
26589;DHT22;14235;48.532;8.722;2023-07-20T03:00:17;17.10;98.60
26589;DHT22;14235;48.532;8.722;2023-07-20T03:02:45;17.00;99.10
26589;DHT22;14235;48.532;8.722;2023-07-20T03:05:13;17.10;99.40
26589;DHT22;14235;48.532;8.722;2023-07-20T03:07:39;17.20;99.40
26589;DHT22;14235;48.532;8.722;2023-07-20T03:10:05;17.20;99.90
26589;DHT22;14235;48.532;8.722;2023-07-20T03:12:34;17.00;99.90
26589;DHT22;14235;48.532;8.722;2023-07-20T03:15:00;17.20;99.00
26589;DHT22;14235;48.532;8.722;2023-07-20T03:17:25;17.00;98.80
26589;DHT22;14235;48.532;8.722;2023-07-20T03:19:51;17.20;99.30
26589;DHT22;14235;48.532;8.722;2023-07-20T03:22:16;17.10;99.90
26589;DHT22;14235;48.532;8.722;2023-07-20T03:24:42;17.20;99.40
26589;DHT22;14235;48.532;8.722;2023-07-20T03:27:08;17.10;99.40
26589;DHT22;14235;48.532;8.722;2023-07-20T03:29:34;17.10;99.70
26589;DHT22;14235;48.532;8.722;2023-07-20T03:32:00;16.80;99.50
26589;DHT22;14235;48.532;8.722;2023-07-20T03:34:26;17.00;99.60
26589;DHT22;14235;48.532;8.722;2023-07-20T03:36:51;16.80;99.60
26589;DHT22;14235;48.532;8.722;2023-07-20T03:39:17;16.80;99.90
26589;DHT22;14235;48.532;8.722;2023-07-20T03:41:42;16.60;99.90
26589;DHT22;14235;48.532;8.722;2023-07-20T03:44:08;16.60;99.90
26589;DHT22;14235;48.532;8.722;2023-07-20T03:46:34;16.50;99.90
26589;DHT22;14235;48.532;8.722;2023-07-20T03:49:00;16.50;99.90
26589;DHT22;14235;48.532;8.722;2023-07-20T03:51:26;16.50;99.90
26589;DHT22;14235;48.532;8.722;2023-07-20T03:53:51;16.40;99.90
26589;DHT22;14235;48.532;8.722;2023-07-20T03:56:17;16.40;99.90
26589;DHT22;14235;48.532;8.722;2023-07-20T03:58:43;16.50;99.90
26589;DHT22;14235;48.532;8.722;2023-07-20T04:01:09;16.50;99.90
26589;DHT22;14235;48.532;8.722;2023-07-20T04:03:35;16.40;99.90
26589;DHT22;14235;48.532;8.722;2023-07-20T04:06:02;16.50;99.90
26589;DHT22;14235;48.532;8.722;2023-07-20T04:08:27;16.40;99.50
26589;DHT22;14235;48.532;8.722;2023-07-20T04:10:53;16.50;99.50
26589;DHT22;14235;48.532;8.722;2023-07-20T04:13:18;16.40;99.30
26589;DHT22;14235;48.532;8.722;2023-07-20T04:15:44;16.80;99.40
26589;DHT22;14235;48.532;8.722;2023-07-20T04:18:10;16.80;99.30
26589;DHT22;14235;48.532;8.722;2023-07-20T04:20:35;16.60;99.30
26589;DHT22;14235;48.532;8.722;2023-07-20T04:23:01;16.60;99.90
26589;DHT22;14235;48.532;8.722;2023-07-20T04:25:26;16.60;99.80
26589;DHT22;14235;48.532;8.722;2023-07-20T04:27:52;16.60;99.60
26589;DHT22;14235;48.532;8.722;2023-07-20T04:30:19;16.50;99.50
26589;DHT22;14235;48.532;8.722;2023-07-20T04:32:48;16.40;99.90
26589;DHT22;14235;48.532;8.722;2023-07-20T04:35:26;16.40;99.90
26589;DHT22;14235;48.532;8.722;2023-07-20T04:38:04;16.30;99.60
26589;DHT22;14235;48.532;8.722;2023-07-20T04:40:30;16.30;99.90
26589;DHT22;14235;48.532;8.722;2023-07-20T04:42:56;16.40;99.90
26589;DHT22;14235;48.532;8.722;2023-07-20T04:45:21;16.10;99.90
26589;DHT22;14235;48.532;8.722;2023-07-20T04:47:49;16.00;99.90
26589;DHT22;14235;48.532;8.722;2023-07-20T04:50:16;16.20;99.90
26589;DHT22;14235;48.532;8.722;2023-07-20T04:52:42;16.20;99.90
26589;DHT22;14235;48.532;8.722;2023-07-20T04:55:07;16.30;99.90
26589;DHT22;14235;48.532;8.722;2023-07-20T04:57:33;16.10;99.90
26589;DHT22;14235;48.532;8.722;2023-07-20T04:59:58;16.20;99.90
26589;DHT22;14235;48.532;8.722;2023-07-20T05:02:24;16.00;99.90
26589;DHT22;14235;48.532;8.722;2023-07-20T05:04:50;16.20;99.90
26589;DHT22;14235;48.532;8.722;2023-07-20T05:07:16;16.20;99.90
26589;DHT22;14235;48.532;8.722;2023-07-20T05:09:41;16.20;99.90
26589;DHT22;14235;48.532;8.722;2023-07-20T05:12:07;16.20;99.90
26589;DHT22;14235;48.532;8.722;2023-07-20T05:14:33;16.10;99.90
26589;DHT22;14235;48.532;8.722;2023-07-20T05:16:58;16.20;99.90
26589;DHT22;14235;48.532;8.722;2023-07-20T05:19:25;16.30;99.90
26589;DHT22;14235;48.532;8.722;2023-07-20T05:24:17;16.10;96.20
26589;DHT22;14235;48.532;8.722;2023-07-20T05:26:42;16.40;97.30
26589;DHT22;14235;48.532;8.722;2023-07-20T05:29:08;16.40;96.60
26589;DHT22;14235;48.532;8.722;2023-07-20T05:31:33;16.60;97.00
26589;DHT22;14235;48.532;8.722;2023-07-20T05:33:59;16.80;96.90
26589;DHT22;14235;48.532;8.722;2023-07-20T05:36:25;16.80;96.60
26589;DHT22;14235;48.532;8.722;2023-07-20T05:38:50;17.00;96.90
26589;DHT22;14235;48.532;8.722;2023-07-20T05:41:16;17.10;96.30
26589;DHT22;14235;48.532;8.722;2023-07-20T05:43:42;17.20;96.20
26589;DHT22;14235;48.532;8.722;2023-07-20T05:46:07;17.30;97.20
26589;DHT22;14235;48.532;8.722;2023-07-20T05:48:33;17.30;98.40
26589;DHT22;14235;48.532;8.722;2023-07-20T05:50:59;17.40;94.40
26589;DHT22;14235;48.532;8.722;2023-07-20T05:53:24;17.40;93.90
26589;DHT22;14235;48.532;8.722;2023-07-20T05:55:54;17.50;93.80
26589;DHT22;14235;48.532;8.722;2023-07-20T05:58:20;17.50;93.50
26589;DHT22;14235;48.532;8.722;2023-07-20T06:00:49;17.20;93.30
26589;DHT22;14235;48.532;8.722;2023-07-20T06:03:16;17.70;93.20
26589;DHT22;14235;48.532;8.722;2023-07-20T06:05:46;17.80;93.10
26589;DHT22;14235;48.532;8.722;2023-07-20T06:08:12;18.00;93.30
26589;DHT22;14235;48.532;8.722;2023-07-20T06:10:39;17.90;93.40
26589;DHT22;14235;48.532;8.722;2023-07-20T06:13:05;17.80;94.00
26589;DHT22;14235;48.532;8.722;2023-07-20T06:15:33;17.80;93.30
26589;DHT22;14235;48.532;8.722;2023-07-20T06:18:00;17.90;93.60
26589;DHT22;14235;48.532;8.722;2023-07-20T06:20:26;17.80;93.40
26589;DHT22;14235;48.532;8.722;2023-07-20T06:22:52;17.90;93.50
26589;DHT22;14235;48.532;8.722;2023-07-20T06:25:18;18.20;93.60
26589;DHT22;14235;48.532;8.722;2023-07-20T06:27:43;18.10;93.60
26589;DHT22;14235;48.532;8.722;2023-07-20T06:30:10;18.10;93.50
26589;DHT22;14235;48.532;8.722;2023-07-20T06:32:35;18.20;93.60
26589;DHT22;14235;48.532;8.722;2023-07-20T06:35:01;18.30;93.30
26589;DHT22;14235;48.532;8.722;2023-07-20T06:37:27;18.50;92.90
26589;DHT22;14235;48.532;8.722;2023-07-20T06:39:52;18.50;92.90
26589;DHT22;14235;48.532;8.722;2023-07-20T06:42:18;18.90;93.10
26589;DHT22;14235;48.532;8.722;2023-07-20T06:44:43;18.70;92.90
26589;DHT22;14235;48.532;8.722;2023-07-20T06:47:09;18.80;93.00
26589;DHT22;14235;48.532;8.722;2023-07-20T06:49:34;18.80;92.10
26589;DHT22;14235;48.532;8.722;2023-07-20T06:52:00;19.00;92.10
26589;DHT22;14235;48.532;8.722;2023-07-20T06:54:26;19.10;91.30
26589;DHT22;14235;48.532;8.722;2023-07-20T06:56:52;19.10;91.10
26589;DHT22;14235;48.532;8.722;2023-07-20T06:59:18;19.30;91.40
26589;DHT22;14235;48.532;8.722;2023-07-20T07:01:43;19.20;91.30
26589;DHT22;14235;48.532;8.722;2023-07-20T07:04:09;19.40;91.50
26589;DHT22;14235;48.532;8.722;2023-07-20T07:06:35;19.50;90.80
26589;DHT22;14235;48.532;8.722;2023-07-20T07:09:02;19.50;90.00
26589;DHT22;14235;48.532;8.722;2023-07-20T07:11:28;19.50;90.10
26589;DHT22;14235;48.532;8.722;2023-07-20T07:13:54;19.60;90.20
26589;DHT22;14235;48.532;8.722;2023-07-20T07:16:20;19.70;90.50
26589;DHT22;14235;48.532;8.722;2023-07-20T07:18:46;19.80;89.70
26589;DHT22;14235;48.532;8.722;2023-07-20T07:21:11;19.60;89.10
26589;DHT22;14235;48.532;8.722;2023-07-20T07:23:38;19.60;89.20
26589;DHT22;14235;48.532;8.722;2023-07-20T07:26:04;19.80;90.40
26589;DHT22;14235;48.532;8.722;2023-07-20T07:28:30;19.70;89.20
26589;DHT22;14235;48.532;8.722;2023-07-20T07:30:57;19.70;87.80
26589;DHT22;14235;48.532;8.722;2023-07-20T07:33:23;19.70;88.30
26589;DHT22;14235;48.532;8.722;2023-07-20T07:35:52;19.90;87.70
26589;DHT22;14235;48.532;8.722;2023-07-20T07:38:18;19.70;86.70
26589;DHT22;14235;48.532;8.722;2023-07-20T07:40:44;19.90;87.30
26589;DHT22;14235;48.532;8.722;2023-07-20T07:43:10;20.00;87.80
26589;DHT22;14235;48.532;8.722;2023-07-20T07:45:36;19.90;86.90
26589;DHT22;14235;48.532;8.722;2023-07-20T07:48:05;19.90;86.00
26589;DHT22;14235;48.532;8.722;2023-07-20T07:50:31;19.90;85.00
26589;DHT22;14235;48.532;8.722;2023-07-20T07:52:57;20.00;84.60
26589;DHT22;14235;48.532;8.722;2023-07-20T07:55:24;20.10;85.20
26589;DHT22;14235;48.532;8.722;2023-07-20T07:57:50;20.20;84.30
26589;DHT22;14235;48.532;8.722;2023-07-20T08:00:16;20.20;84.50
26589;DHT22;14235;48.532;8.722;2023-07-20T08:02:45;20.30;82.10
26589;DHT22;14235;48.532;8.722;2023-07-20T08:05:12;20.40;82.10
26589;DHT22;14235;48.532;8.722;2023-07-20T08:07:38;20.50;81.40
26589;DHT22;14235;48.532;8.722;2023-07-20T08:10:04;20.40;81.20
26589;DHT22;14235;48.532;8.722;2023-07-20T08:12:30;20.40;79.30
26589;DHT22;14235;48.532;8.722;2023-07-20T08:14:56;20.70;80.90
26589;DHT22;14235;48.532;8.722;2023-07-20T08:17:21;20.50;80.70
26589;DHT22;14235;48.532;8.722;2023-07-20T08:19:47;20.70;79.20
26589;DHT22;14235;48.532;8.722;2023-07-20T08:22:13;20.70;78.80
26589;DHT22;14235;48.532;8.722;2023-07-20T08:24:42;20.50;78.10
26589;DHT22;14235;48.532;8.722;2023-07-20T08:27:09;20.30;77.00
26589;DHT22;14235;48.532;8.722;2023-07-20T08:29:35;20.70;77.70
26589;DHT22;14235;48.532;8.722;2023-07-20T08:32:01;20.70;76.10
26589;DHT22;14235;48.532;8.722;2023-07-20T08:34:27;20.70;73.40
26589;DHT22;14235;48.532;8.722;2023-07-20T08:36:53;20.90;74.40
26589;DHT22;14235;48.532;8.722;2023-07-20T08:39:19;19.40;71.80
26589;DHT22;14235;48.532;8.722;2023-07-20T08:41:46;20.80;73.80
26589;DHT22;14235;48.532;8.722;2023-07-20T08:44:12;20.80;72.50
26589;DHT22;14235;48.532;8.722;2023-07-20T08:46:38;21.00;72.10
26589;DHT22;14235;48.532;8.722;2023-07-20T08:49:06;21.10;71.20
26589;DHT22;14235;48.532;8.722;2023-07-20T08:51:32;21.10;68.80
26589;DHT22;14235;48.532;8.722;2023-07-20T08:53:59;21.20;69.10
26589;DHT22;14235;48.532;8.722;2023-07-20T08:56:25;21.20;68.40
26589;DHT22;14235;48.532;8.722;2023-07-20T08:58:53;21.30;65.90
26589;DHT22;14235;48.532;8.722;2023-07-20T09:01:19;21.20;66.80
26589;DHT22;14235;48.532;8.722;2023-07-20T09:03:46;21.10;66.30
26589;DHT22;14235;48.532;8.722;2023-07-20T09:06:12;21.10;65.80
26589;DHT22;14235;48.532;8.722;2023-07-20T09:08:41;21.40;65.30
26589;DHT22;14235;48.532;8.722;2023-07-20T09:11:09;21.40;66.40
26589;DHT22;14235;48.532;8.722;2023-07-20T09:13:35;21.40;67.30
26589;DHT22;14235;48.532;8.722;2023-07-20T09:16:00;21.40;67.40
26589;DHT22;14235;48.532;8.722;2023-07-20T09:18:28;21.50;65.80
26589;DHT22;14235;48.532;8.722;2023-07-20T09:21:20;21.60;64.60
26589;DHT22;14235;48.532;8.722;2023-07-20T09:23:46;21.60;62.60
26589;DHT22;14235;48.532;8.722;2023-07-20T09:26:14;21.50;63.60
26589;DHT22;14235;48.532;8.722;2023-07-20T09:28:49;21.60;63.90
26589;DHT22;14235;48.532;8.722;2023-07-20T09:31:19;21.70;62.20
26589;DHT22;14235;48.532;8.722;2023-07-20T09:33:46;21.90;61.00
26589;DHT22;14235;48.532;8.722;2023-07-20T09:36:12;22.00;62.50
26589;DHT22;14235;48.532;8.722;2023-07-20T09:38:41;22.10;61.40
26589;DHT22;14235;48.532;8.722;2023-07-20T09:41:14;22.00;59.30
26589;DHT22;14235;48.532;8.722;2023-07-20T09:43:43;22.00;59.90
26589;DHT22;14235;48.532;8.722;2023-07-20T09:46:10;22.00;61.40
26589;DHT22;14235;48.532;8.722;2023-07-20T09:48:36;22.00;59.00
26589;DHT22;14235;48.532;8.722;2023-07-20T09:51:02;21.90;59.00
26589;DHT22;14235;48.532;8.722;2023-07-20T09:53:28;21.90;59.60
26589;DHT22;14235;48.532;8.722;2023-07-20T09:55:55;22.00;59.60
26589;DHT22;14235;48.532;8.722;2023-07-20T09:58:21;22.20;59.10
26589;DHT22;14235;48.532;8.722;2023-07-20T10:00:50;22.10;59.20
26589;DHT22;14235;48.532;8.722;2023-07-20T10:03:21;22.10;58.70
26589;DHT22;14235;48.532;8.722;2023-07-20T10:05:54;22.30;59.00
26589;DHT22;14235;48.532;8.722;2023-07-20T10:08:21;22.30;59.50
26589;DHT22;14235;48.532;8.722;2023-07-20T10:10:49;22.30;59.80
26589;DHT22;14235;48.532;8.722;2023-07-20T10:13:18;22.30;58.70
26589;DHT22;14235;48.532;8.722;2023-07-20T10:15:47;22.40;57.70
26589;DHT22;14235;48.532;8.722;2023-07-20T10:18:55;22.50;57.90
26589;DHT22;14235;48.532;8.722;2023-07-20T10:21:17;22.60;58.70
26589;DHT22;14235;48.532;8.722;2023-07-20T10:23:45;22.60;56.90
26589;DHT22;14235;48.532;8.722;2023-07-20T10:26:11;22.70;57.40
26589;DHT22;14235;48.532;8.722;2023-07-20T10:28:38;22.70;58.10
26589;DHT22;14235;48.532;8.722;2023-07-20T10:31:07;22.70;59.10
26589;DHT22;14235;48.532;8.722;2023-07-20T10:33:32;22.80;58.80
26589;DHT22;14235;48.532;8.722;2023-07-20T10:36:03;22.90;59.50
26589;DHT22;14235;48.532;8.722;2023-07-20T10:38:42;22.90;58.30
26589;DHT22;14235;48.532;8.722;2023-07-20T10:41:18;23.00;58.40
26589;DHT22;14235;48.532;8.722;2023-07-20T10:43:44;23.00;55.70
26589;DHT22;14235;48.532;8.722;2023-07-20T10:46:13;23.00;55.80
26589;DHT22;14235;48.532;8.722;2023-07-20T10:48:59;23.40;57.00
26589;DHT22;14235;48.532;8.722;2023-07-20T10:51:25;23.10;57.90
26589;DHT22;14235;48.532;8.722;2023-07-20T10:53:50;23.10;57.90
26589;DHT22;14235;48.532;8.722;2023-07-20T10:56:39;23.00;58.40
26589;DHT22;14235;48.532;8.722;2023-07-20T11:01:47;23.00;57.00
26589;DHT22;14235;48.532;8.722;2023-07-20T11:04:15;23.10;57.20
26589;DHT22;14235;48.532;8.722;2023-07-20T11:06:44;23.10;56.10
26589;DHT22;14235;48.532;8.722;2023-07-20T11:09:13;23.10;56.10
26589;DHT22;14235;48.532;8.722;2023-07-20T11:11:46;23.10;55.30
26589;DHT22;14235;48.532;8.722;2023-07-20T11:16:48;23.30;56.40
26589;DHT22;14235;48.532;8.722;2023-07-20T11:19:20;23.40;55.40
26589;DHT22;14235;48.532;8.722;2023-07-20T11:21:50;23.50;55.40
26589;DHT22;14235;48.532;8.722;2023-07-20T11:24:17;23.50;54.50
26589;DHT22;14235;48.532;8.722;2023-07-20T11:26:50;23.50;52.90
26589;DHT22;14235;48.532;8.722;2023-07-20T11:29:17;23.50;53.50
26589;DHT22;14235;48.532;8.722;2023-07-20T11:31:44;23.40;53.70
26589;DHT22;14235;48.532;8.722;2023-07-20T11:34:14;23.50;53.40
26589;DHT22;14235;48.532;8.722;2023-07-20T11:36:45;23.50;53.90
26589;DHT22;14235;48.532;8.722;2023-07-20T11:39:18;23.60;53.30
26589;DHT22;14235;48.532;8.722;2023-07-20T11:41:47;23.60;52.50
26589;DHT22;14235;48.532;8.722;2023-07-20T11:44:13;23.70;53.30
26589;DHT22;14235;48.532;8.722;2023-07-20T11:46:41;23.70;52.70
26589;DHT22;14235;48.532;8.722;2023-07-20T11:49:08;23.80;54.00
26589;DHT22;14235;48.532;8.722;2023-07-20T11:51:34;23.70;53.00
26589;DHT22;14235;48.532;8.722;2023-07-20T11:54:02;23.80;54.00
26589;DHT22;14235;48.532;8.722;2023-07-20T11:56:28;23.80;54.50
26589;DHT22;14235;48.532;8.722;2023-07-20T11:59:00;23.90;53.40
26589;DHT22;14235;48.532;8.722;2023-07-20T12:01:28;23.90;51.50
26589;DHT22;14235;48.532;8.722;2023-07-20T12:03:57;24.00;53.00
26589;DHT22;14235;48.532;8.722;2023-07-20T12:06:24;24.00;53.50
26589;DHT22;14235;48.532;8.722;2023-07-20T12:08:52;24.10;52.00
26589;DHT22;14235;48.532;8.722;2023-07-20T12:11:34;24.10;52.90
26589;DHT22;14235;48.532;8.722;2023-07-20T12:14:00;24.20;52.90
26589;DHT22;14235;48.532;8.722;2023-07-20T12:16:29;24.10;52.40
26589;DHT22;14235;48.532;8.722;2023-07-20T12:21:27;24.30;52.70
26589;DHT22;14235;48.532;8.722;2023-07-20T12:23:56;24.40;53.70
26589;DHT22;14235;48.532;8.722;2023-07-20T12:26:23;24.50;55.30
26589;DHT22;14235;48.532;8.722;2023-07-20T12:28:49;24.60;53.80
26589;DHT22;14235;48.532;8.722;2023-07-20T12:31:15;24.80;52.80
26589;DHT22;14235;48.532;8.722;2023-07-20T12:33:41;24.80;51.10
26589;DHT22;14235;48.532;8.722;2023-07-20T12:36:08;24.90;52.70
26589;DHT22;14235;48.532;8.722;2023-07-20T12:38:34;24.80;51.80
26589;DHT22;14235;48.532;8.722;2023-07-20T12:41:03;24.80;51.80
26589;DHT22;14235;48.532;8.722;2023-07-20T12:43:29;24.80;52.20
26589;DHT22;14235;48.532;8.722;2023-07-20T12:45:56;24.80;52.80
26589;DHT22;14235;48.532;8.722;2023-07-20T12:48:22;24.90;53.60
26589;DHT22;14235;48.532;8.722;2023-07-20T12:50:48;24.90;52.80
26589;DHT22;14235;48.532;8.722;2023-07-20T12:53:14;24.90;53.20
26589;DHT22;14235;48.532;8.722;2023-07-20T12:55:39;25.00;53.30
26589;DHT22;14235;48.532;8.722;2023-07-20T12:58:06;24.90;52.90
26589;DHT22;14235;48.532;8.722;2023-07-20T13:00:32;24.80;52.80
26589;DHT22;14235;48.532;8.722;2023-07-20T13:02:57;24.80;53.90
26589;DHT22;14235;48.532;8.722;2023-07-20T13:05:23;24.80;54.40
26589;DHT22;14235;48.532;8.722;2023-07-20T13:07:49;24.90;54.20
26589;DHT22;14235;48.532;8.722;2023-07-20T13:10:15;25.00;55.70
26589;DHT22;14235;48.532;8.722;2023-07-20T13:12:40;25.20;53.00
26589;DHT22;14235;48.532;8.722;2023-07-20T13:15:07;25.10;52.80
26589;DHT22;14235;48.532;8.722;2023-07-20T13:17:37;25.10;52.50
26589;DHT22;14235;48.532;8.722;2023-07-20T13:20:07;25.10;53.60
26589;DHT22;14235;48.532;8.722;2023-07-20T13:22:35;25.00;53.20
26589;DHT22;14235;48.532;8.722;2023-07-20T13:25:01;25.00;54.00
26589;DHT22;14235;48.532;8.722;2023-07-20T13:27:27;25.00;52.60
26589;DHT22;14235;48.532;8.722;2023-07-20T13:29:53;25.00;52.90
26589;DHT22;14235;48.532;8.722;2023-07-20T13:32:18;25.20;52.90
26589;DHT22;14235;48.532;8.722;2023-07-20T13:34:45;25.30;54.80
26589;DHT22;14235;48.532;8.722;2023-07-20T13:37:11;25.40;52.20
26589;DHT22;14235;48.532;8.722;2023-07-20T13:39:37;25.40;51.30
26589;DHT22;14235;48.532;8.722;2023-07-20T13:42:04;25.50;51.90
26589;DHT22;14235;48.532;8.722;2023-07-20T13:44:31;25.60;51.30
26589;DHT22;14235;48.532;8.722;2023-07-20T13:46:56;25.80;52.40
26589;DHT22;14235;48.532;8.722;2023-07-20T13:49:22;25.70;51.60
26589;DHT22;14235;48.532;8.722;2023-07-20T13:51:48;25.90;51.50
26589;DHT22;14235;48.532;8.722;2023-07-20T13:54:14;25.90;50.80
26589;DHT22;14235;48.532;8.722;2023-07-20T13:56:39;25.90;51.80
26589;DHT22;14235;48.532;8.722;2023-07-20T13:59:05;26.10;52.40
26589;DHT22;14235;48.532;8.722;2023-07-20T14:01:35;26.30;51.80
26589;DHT22;14235;48.532;8.722;2023-07-20T14:04:40;26.50;52.60
26589;DHT22;14235;48.532;8.722;2023-07-20T14:07:09;26.60;50.10
26589;DHT22;14235;48.532;8.722;2023-07-20T14:09:34;26.70;49.90
26589;DHT22;14235;48.532;8.722;2023-07-20T14:12:00;26.60;50.50
26589;DHT22;14235;48.532;8.722;2023-07-20T14:14:25;26.50;49.40
26589;DHT22;14235;48.532;8.722;2023-07-20T14:16:51;26.40;49.70
26589;DHT22;14235;48.532;8.722;2023-07-20T14:19:16;26.60;50.40
26589;DHT22;14235;48.532;8.722;2023-07-20T14:21:42;26.80;51.00
26589;DHT22;14235;48.532;8.722;2023-07-20T14:24:08;27.10;52.60
26589;DHT22;14235;48.532;8.722;2023-07-20T14:26:33;27.40;55.30
26589;DHT22;14235;48.532;8.722;2023-07-20T14:29:00;27.50;59.80
26589;DHT22;14235;48.532;8.722;2023-07-20T14:31:26;27.40;62.10
26589;DHT22;14235;48.532;8.722;2023-07-20T14:33:52;27.40;57.30
26589;DHT22;14235;48.532;8.722;2023-07-20T14:36:18;27.30;57.80
26589;DHT22;14235;48.532;8.722;2023-07-20T14:38:44;27.30;56.40
26589;DHT22;14235;48.532;8.722;2023-07-20T14:41:09;27.50;57.00
26589;DHT22;14235;48.532;8.722;2023-07-20T14:43:35;27.70;57.20
26589;DHT22;14235;48.532;8.722;2023-07-20T14:46:01;27.80;58.40
26589;DHT22;14235;48.532;8.722;2023-07-20T14:48:26;27.90;46.40
26589;DHT22;14235;48.532;8.722;2023-07-20T14:50:52;27.90;45.90
26589;DHT22;14235;48.532;8.722;2023-07-20T14:53:17;27.90;46.70
26589;DHT22;14235;48.532;8.722;2023-07-20T14:55:43;28.00;46.10
26589;DHT22;14235;48.532;8.722;2023-07-20T14:58:09;28.10;46.00
26589;DHT22;14235;48.532;8.722;2023-07-20T15:00:35;28.20;46.80
26589;DHT22;14235;48.532;8.722;2023-07-20T15:03:00;28.20;46.10
26589;DHT22;14235;48.532;8.722;2023-07-20T15:05:26;27.90;45.30
26589;DHT22;14235;48.532;8.722;2023-07-20T15:07:52;27.60;46.00
26589;DHT22;14235;48.532;8.722;2023-07-20T15:10:19;27.40;45.60
26589;DHT22;14235;48.532;8.722;2023-07-20T15:12:44;27.50;47.10
26589;DHT22;14235;48.532;8.722;2023-07-20T15:15:12;27.80;46.10
26589;DHT22;14235;48.532;8.722;2023-07-20T15:17:40;28.30;45.60
26589;DHT22;14235;48.532;8.722;2023-07-20T15:20:07;28.90;43.50
26589;DHT22;14235;48.532;8.722;2023-07-20T15:22:34;29.30;44.00
26589;DHT22;14235;48.532;8.722;2023-07-20T15:25:04;29.50;43.80
26589;DHT22;14235;48.532;8.722;2023-07-20T15:27:30;29.90;53.00
26589;DHT22;14235;48.532;8.722;2023-07-20T15:29:56;29.90;51.40
26589;DHT22;14235;48.532;8.722;2023-07-20T15:32:21;30.00;51.60
26589;DHT22;14235;48.532;8.722;2023-07-20T15:34:47;29.90;50.90
26589;DHT22;14235;48.532;8.722;2023-07-20T15:37:13;29.80;50.70
26589;DHT22;14235;48.532;8.722;2023-07-20T15:39:39;30.50;41.30
26589;DHT22;14235;48.532;8.722;2023-07-20T15:42:06;30.50;41.80
26589;DHT22;14235;48.532;8.722;2023-07-20T15:44:31;30.80;40.90
26589;DHT22;14235;48.532;8.722;2023-07-20T15:46:57;31.10;40.40
26589;DHT22;14235;48.532;8.722;2023-07-20T15:49:23;31.30;38.80
26589;DHT22;14235;48.532;8.722;2023-07-20T15:51:53;31.30;38.70
26589;DHT22;14235;48.532;8.722;2023-07-20T15:54:19;31.10;39.10